createdAt,value
2018-09-26T11:19:27.062Z,17.44
2018-09-26T11:21:55.698Z,17.44
2018-09-26T11:24:24.530Z,17.32
2018-09-26T11:26:53.216Z,17.19
2018-09-26T11:29:21.987Z,17.26
2018-09-26T11:31:50.976Z,17.30
2018-09-26T11:34:19.654Z,17.33
2018-09-26T11:36:48.404Z,17.32
2018-09-26T11:39:17.310Z,17.33
2018-09-26T11:41:45.849Z,17.25
2018-09-26T11:44:14.539Z,17.22
2018-09-26T11:46:43.494Z,17.18
2018-09-26T11:49:12.094Z,17.21
2018-09-26T11:51:41.283Z,17.22
2018-09-26T11:54:09.861Z,17.21
2018-09-26T11:56:38.447Z,17.26
2018-09-26T11:59:07.399Z,17.31
2018-09-26T12:01:36.127Z,17.37
2018-09-26T12:04:05.004Z,17.46
2018-09-26T12:06:33.702Z,17.60
2018-09-26T12:09:02.287Z,17.64
2018-09-26T12:11:30.854Z,17.53
2018-09-26T12:13:59.552Z,17.54
2018-09-26T12:16:28.278Z,17.55
2018-09-26T12:18:56.839Z,17.66
2018-09-26T12:21:30.537Z,17.73
2018-09-26T12:23:54.414Z,17.86
2018-09-26T12:26:23.070Z,17.72
2018-09-26T12:28:51.645Z,17.53
2018-09-26T12:31:20.268Z,17.61
2018-09-26T12:33:48.866Z,17.78
2018-09-26T12:36:17.537Z,17.75
2018-09-26T12:38:46.413Z,17.80
2018-09-26T12:41:15.192Z,17.98
2018-09-26T12:43:43.871Z,18.15
2018-09-26T12:46:12.504Z,18.23
2018-09-26T12:48:41.258Z,18.30
2018-09-26T12:51:09.855Z,18.30
2018-09-26T12:53:38.490Z,18.29
2018-09-26T12:56:07.545Z,18.26
2018-09-26T12:58:36.281Z,18.21
2018-09-26T13:01:04.963Z,18.16
2018-09-26T13:03:33.596Z,18.05
2018-09-26T13:06:02.170Z,18.00
2018-09-26T13:08:30.737Z,18.10
2018-09-26T13:10:59.301Z,18.22
2018-09-26T13:13:27.846Z,18.27
2018-09-26T13:15:57.373Z,18.39
2018-09-26T13:18:26.202Z,18.56
2018-09-26T13:20:54.990Z,18.67
2018-09-26T13:23:23.508Z,18.70
2018-09-26T13:25:52.101Z,18.70
2018-09-26T13:28:20.708Z,18.67
2018-09-26T13:30:49.699Z,18.37
2018-09-26T13:33:19.383Z,18.24
2018-09-26T13:35:48.326Z,18.18
2018-09-26T13:38:17.042Z,17.98
2018-09-26T13:40:46.094Z,17.78
2018-09-26T13:43:14.667Z,17.69
2018-09-26T13:45:43.320Z,17.69
2018-09-26T13:48:12.043Z,17.72
2018-09-26T13:50:40.838Z,17.78
2018-09-26T13:53:09.433Z,17.72
2018-09-26T13:55:38.146Z,17.75
2018-09-26T13:58:07.247Z,17.82
2018-09-26T14:00:36.199Z,17.95
2018-09-26T14:03:04.758Z,18.03
2018-09-26T14:05:33.415Z,18.03
2018-09-26T14:08:01.995Z,18.04
2018-09-26T14:10:30.601Z,18.04
2018-09-26T14:12:59.188Z,17.95
2018-09-26T14:15:28.126Z,17.86
2018-09-26T14:17:56.855Z,17.74
2018-09-26T14:20:25.627Z,17.73
2018-09-26T14:22:55.012Z,17.65
2018-09-26T14:25:23.684Z,17.49
2018-09-26T14:27:52.462Z,17.51
2018-09-26T14:30:21.139Z,17.48
2018-09-26T14:32:49.922Z,17.43
2018-09-26T14:35:18.726Z,17.32
2018-09-26T14:37:47.639Z,17.18
2018-09-26T14:40:16.374Z,17.05
2018-09-26T14:42:45.066Z,16.93
2018-09-26T14:45:13.652Z,16.78
2018-09-26T14:47:42.766Z,16.66
2018-09-26T14:50:11.352Z,16.52
2018-09-26T14:52:40.722Z,16.49
2018-09-26T14:55:09.476Z,16.44
2018-09-26T14:57:38.374Z,16.36
2018-09-26T15:00:07.935Z,16.28
2018-09-26T15:02:36.672Z,16.24
2018-09-26T15:05:05.243Z,16.15
2018-09-26T15:07:33.841Z,16.11
2018-09-26T15:10:02.394Z,16.08
2018-09-26T15:12:31.078Z,16.14
2018-09-26T15:14:59.858Z,16.13
2018-09-26T15:17:28.498Z,16.00
2018-09-26T15:20:05.002Z,15.92
2018-09-26T15:22:33.758Z,15.83
2018-09-26T15:25:02.345Z,15.75
2018-09-26T15:27:30.988Z,15.65
2018-09-26T15:29:59.613Z,15.59
2018-09-26T15:32:28.278Z,15.51
2018-09-26T15:34:56.936Z,15.46
2018-09-26T15:37:25.461Z,15.46
2018-09-26T15:39:54.004Z,15.46
2018-09-26T15:42:22.557Z,15.40
2018-09-26T15:44:51.490Z,15.30
2018-09-26T15:47:20.058Z,15.27
2018-09-26T15:49:48.617Z,15.21
2018-09-26T15:52:17.171Z,15.15
2018-09-26T15:54:45.946Z,15.15
2018-09-26T15:57:14.490Z,15.09
2018-09-26T15:59:43.058Z,14.95
2018-09-26T16:02:11.723Z,14.94
2018-09-26T16:04:40.518Z,14.92
2018-09-26T16:07:09.143Z,14.76
2018-09-26T16:09:37.719Z,14.74
2018-09-26T16:12:06.367Z,14.66
2018-09-26T16:14:35.112Z,14.54
2018-09-26T16:17:03.694Z,14.41
2018-09-26T16:19:32.458Z,14.41
2018-09-26T16:22:01.088Z,14.29
2018-09-26T16:24:29.667Z,14.23
2018-09-26T16:26:58.259Z,14.07
2018-09-26T16:29:26.854Z,13.97
2018-09-26T16:31:55.620Z,13.96
2018-09-26T16:34:24.252Z,13.80
2018-09-26T16:36:53.057Z,13.68
2018-09-26T16:39:21.847Z,13.53
2018-09-26T16:41:50.621Z,13.45
2018-09-26T16:44:19.300Z,13.30
2018-09-26T16:46:48.066Z,13.08
2018-09-26T16:49:16.723Z,12.89
2018-09-26T16:51:45.377Z,12.73
2018-09-26T16:54:14.084Z,12.58
2018-09-26T16:56:42.904Z,12.50
2018-09-26T16:59:11.508Z,12.50
2018-09-26T17:01:40.095Z,12.57
2018-09-26T17:04:08.773Z,12.61
2018-09-26T17:06:37.546Z,12.59
2018-09-26T17:09:07.794Z,12.63
2018-09-26T17:11:36.353Z,12.73
2018-09-26T17:22:05.064Z,12.66
2018-09-26T17:24:33.996Z,12.58
2018-09-26T17:27:02.680Z,12.60
2018-09-26T17:29:31.264Z,12.60
2018-09-26T17:31:59.849Z,12.59
2018-09-26T17:34:28.451Z,12.67
2018-09-26T17:36:57.022Z,12.56
2018-09-26T17:39:25.654Z,12.40
2018-09-26T17:41:54.345Z,12.32
2018-09-26T17:44:23.026Z,12.52
2018-09-26T17:46:51.590Z,12.48
2018-09-26T17:49:20.220Z,12.46
2018-09-26T17:51:48.977Z,12.40
2018-09-26T17:54:17.854Z,12.47
2018-09-26T17:56:46.546Z,12.45
2018-09-26T17:59:15.210Z,12.44
2018-09-26T18:01:43.891Z,12.40
2018-09-26T18:04:12.698Z,12.53
2018-09-26T18:06:41.519Z,12.48
2018-09-26T18:09:11.191Z,12.32
2018-09-26T18:11:39.885Z,12.21
2018-09-26T18:14:08.514Z,12.15
2018-09-26T18:16:37.834Z,12.09
2018-09-26T18:19:07.117Z,12.01
2018-09-26T18:21:35.784Z,11.98
2018-09-26T18:24:04.424Z,11.80
2018-09-26T18:26:33.008Z,11.74
2018-09-26T18:29:01.573Z,11.63
2018-09-26T18:31:30.429Z,11.53
2018-09-26T18:33:59.021Z,11.40
2018-09-26T18:36:27.649Z,11.34
2018-09-26T18:38:56.372Z,11.29
2018-09-26T18:41:25.178Z,11.39
2018-09-26T18:43:53.821Z,11.36
2018-09-26T18:46:22.358Z,11.39
2018-09-26T18:48:50.962Z,11.30
2018-09-26T18:51:19.568Z,11.27
2018-09-26T18:53:48.171Z,11.15
2018-09-26T18:56:17.090Z,11.03
2018-09-26T18:58:45.967Z,11.08
2018-09-26T19:01:14.810Z,11.05
2018-09-26T19:03:43.553Z,10.97
2018-09-26T19:06:12.138Z,10.87
2018-09-26T19:08:40.719Z,10.86
2018-09-26T19:11:09.398Z,10.92
2018-09-26T19:13:38.051Z,11.00
2018-09-26T19:16:06.934Z,11.12
2018-09-26T19:18:35.589Z,11.18
2018-09-26T19:21:04.241Z,11.36
2018-09-26T19:23:33.043Z,11.59
2018-09-26T19:26:01.620Z,11.75
2018-09-26T19:28:30.183Z,11.89
2018-09-26T19:30:58.854Z,11.99
2018-09-26T19:33:27.637Z,11.99
2018-09-26T19:35:56.425Z,12.04
2018-09-26T19:38:25.062Z,12.22
2018-09-26T19:40:53.618Z,12.34
2018-09-26T19:43:22.158Z,12.53
2018-09-26T19:45:50.965Z,12.64
2018-09-26T19:48:19.674Z,12.59
2018-09-26T19:50:48.316Z,12.61
2018-09-26T19:53:16.954Z,12.53
2018-09-26T19:55:45.558Z,12.58
2018-09-26T19:58:14.221Z,12.69
2018-09-26T20:00:42.950Z,12.65
2018-09-26T20:03:11.530Z,12.70
2018-09-26T20:05:40.747Z,12.62
2018-09-26T20:08:09.482Z,12.60
2018-09-26T20:10:38.194Z,12.51
2018-09-26T20:13:06.832Z,12.50
2018-09-26T20:15:35.585Z,12.54
2018-09-26T20:18:04.142Z,12.57
2018-09-26T20:20:32.715Z,12.57
2018-09-26T20:23:01.344Z,12.62
2018-09-26T20:25:30.204Z,12.59
2018-09-26T20:27:58.805Z,12.59
2018-09-26T20:30:27.361Z,12.69
2018-09-26T20:32:56.013Z,12.78
2018-09-26T20:35:24.835Z,12.90
2018-09-26T20:37:53.542Z,12.90
2018-09-26T20:40:22.081Z,12.88
2018-09-26T20:42:50.815Z,12.95
2018-09-26T20:45:19.424Z,12.98
2018-09-26T20:47:48.253Z,12.96
2018-09-26T20:50:16.830Z,12.87
2018-09-26T20:52:45.381Z,12.80
2018-09-26T20:55:13.951Z,12.78
2018-09-26T20:57:42.509Z,12.64
2018-09-26T21:00:11.177Z,12.60
2018-09-26T21:02:39.754Z,12.51
2018-09-26T21:05:08.351Z,12.34
2018-09-26T21:07:37.046Z,12.39
2018-09-26T21:10:05.624Z,12.48
2018-09-26T21:12:34.226Z,12.42
2018-09-26T21:15:02.771Z,12.41
2018-09-26T21:17:31.465Z,12.39
2018-09-26T21:20:00.237Z,12.26
2018-09-26T21:22:28.847Z,12.04
2018-09-26T21:24:57.422Z,11.82
2018-09-26T21:27:26.008Z,11.77
2018-09-26T21:29:54.630Z,11.74
2018-09-26T21:32:23.321Z,11.60
2018-09-26T21:34:52.795Z,11.49
2018-09-26T21:37:21.630Z,11.64
2018-09-26T21:39:50.329Z,11.67
2018-09-26T21:42:18.873Z,11.74
2018-09-26T21:44:47.414Z,11.82
2018-09-26T21:47:15.978Z,11.86
2018-09-26T21:49:44.527Z,11.82
2018-09-26T21:52:13.240Z,11.88
2018-09-26T21:54:41.967Z,11.94
2018-09-26T21:57:10.696Z,11.99
2018-09-26T21:59:39.293Z,12.04
2018-09-26T22:02:07.955Z,12.32
2018-09-26T22:04:36.487Z,12.32
2018-09-26T22:07:05.119Z,12.34
2018-09-26T22:09:33.902Z,12.29
2018-09-26T22:12:02.627Z,12.23
2018-09-26T22:14:31.255Z,12.34
2018-09-26T22:17:00.179Z,12.40
2018-09-26T22:19:29.140Z,12.53
2018-09-26T22:21:57.663Z,12.55
2018-09-26T22:24:26.234Z,12.74
2018-09-26T22:26:54.810Z,12.65
2018-09-26T22:29:23.537Z,12.62
2018-09-26T22:31:52.276Z,12.53
2018-09-26T22:34:20.823Z,12.71
2018-09-26T22:36:49.378Z,12.70
2018-09-26T22:39:17.907Z,12.72
2018-09-26T22:41:46.458Z,12.75
2018-09-26T22:44:15.019Z,12.77
2018-09-26T22:46:43.671Z,12.79
2018-09-26T22:49:12.378Z,12.78
2018-09-26T22:51:40.988Z,12.71
2018-09-26T22:54:09.582Z,12.71
2018-09-26T22:56:38.250Z,12.93
2018-09-26T22:59:06.831Z,12.92
2018-09-26T23:01:35.480Z,12.99
2018-09-26T23:04:04.284Z,13.04
2018-09-26T23:06:32.900Z,12.94
2018-09-26T23:09:01.654Z,12.86
2018-09-26T23:11:30.232Z,13.02
2018-09-26T23:13:59.067Z,12.99
2018-09-26T23:16:27.639Z,12.97
2018-09-26T23:18:56.336Z,12.98
2018-09-26T23:21:25.635Z,13.03
2018-09-26T23:23:54.279Z,13.00
2018-09-26T23:26:22.942Z,13.04
2018-09-26T23:28:52.116Z,13.08
2018-09-26T23:31:21.372Z,13.02
2018-09-26T23:33:50.102Z,13.12
2018-09-26T23:36:18.660Z,13.17
2018-09-26T23:38:47.264Z,13.15
2018-09-26T23:41:16.086Z,13.11
2018-09-26T23:43:45.660Z,12.96
2018-09-26T23:46:14.322Z,12.90
2018-09-26T23:48:43.068Z,13.09
2018-09-26T23:51:12.390Z,13.09
2018-09-26T23:53:41.215Z,13.05
2018-09-26T23:56:09.782Z,13.26
2018-09-26T23:58:38.361Z,13.32
